createdAt,value
2022-12-08T00:00:16.718Z,20
2022-12-08T00:01:16.711Z,20
2022-12-08T00:02:16.693Z,20
2022-12-08T00:03:16.687Z,20
2022-12-08T00:04:16.680Z,20
2022-12-08T00:05:16.663Z,20
2022-12-08T00:06:16.661Z,20
2022-12-08T00:07:16.650Z,20
2022-12-08T00:08:16.643Z,20
2022-12-08T00:09:16.625Z,20
2022-12-08T00:10:16.622Z,20
2022-12-08T00:11:16.601Z,20
2022-12-08T00:12:16.593Z,20
2022-12-08T00:13:16.578Z,20
2022-12-08T00:14:16.575Z,20
2022-12-08T00:15:16.560Z,20
2022-12-08T00:16:16.556Z,20
2022-12-08T00:17:16.540Z,20
2022-12-08T00:18:16.526Z,20
2022-12-08T00:19:16.528Z,20
2022-12-08T00:20:16.509Z,20
2022-12-08T00:21:16.502Z,20
2022-12-08T00:22:16.485Z,20
2022-12-08T00:23:16.496Z,20
2022-12-08T00:24:16.469Z,20
2022-12-08T00:25:16.461Z,20
2022-12-08T00:26:16.453Z,20
2022-12-08T00:27:16.443Z,20
2022-12-08T00:28:16.431Z,20
2022-12-08T00:29:16.416Z,20
2022-12-08T00:30:16.403Z,20
2022-12-08T00:31:16.396Z,20
2022-12-08T00:32:16.387Z,20
2022-12-08T00:33:16.377Z,20
2022-12-08T00:34:16.366Z,20
2022-12-08T00:35:16.351Z,20
2022-12-08T00:36:16.346Z,20
2022-12-08T00:37:16.330Z,20
2022-12-08T00:38:16.327Z,20
2022-12-08T00:39:16.321Z,20
2022-12-08T00:40:16.300Z,20
2022-12-08T00:41:16.291Z,20
2022-12-08T00:42:16.280Z,20
2022-12-08T00:43:16.275Z,20
2022-12-08T00:44:16.259Z,20
2022-12-08T00:45:16.250Z,20
2022-12-08T00:46:16.245Z,20
2022-12-08T00:47:16.231Z,20
2022-12-08T00:48:16.219Z,20
2022-12-08T00:49:16.214Z,20
2022-12-08T00:50:16.199Z,20
2022-12-08T00:51:16.193Z,20
2022-12-08T00:52:16.178Z,20
2022-12-08T00:53:16.171Z,20
2022-12-08T00:54:16.155Z,20
2022-12-08T00:55:16.144Z,20
2022-12-08T00:56:16.142Z,20
2022-12-08T00:57:16.131Z,20
2022-12-08T00:58:16.119Z,20
2022-12-08T00:59:16.103Z,20
2022-12-08T01:00:16.098Z,20
2022-12-08T01:01:16.082Z,20
2022-12-08T01:02:16.076Z,20
2022-12-08T01:03:16.072Z,20
2022-12-08T01:04:16.053Z,20
2022-12-08T01:05:16.048Z,20
2022-12-08T01:06:16.036Z,20
2022-12-08T01:07:16.022Z,20
2022-12-08T01:08:16.014Z,20
2022-12-08T01:09:16.003Z,20
2022-12-08T01:10:15.998Z,20
2022-12-08T01:11:15.980Z,20
2022-12-08T01:12:15.975Z,20
2022-12-08T01:13:15.970Z,20
2022-12-08T01:14:15.953Z,20
2022-12-08T01:15:15.947Z,20
2022-12-08T01:16:15.931Z,20
2022-12-08T01:17:15.924Z,20
2022-12-08T01:18:15.907Z,20
2022-12-08T01:19:15.896Z,20
2022-12-08T01:20:15.888Z,20
2022-12-08T01:21:15.879Z,20
2022-12-08T01:22:15.868Z,20
2022-12-08T01:23:15.857Z,20
2022-12-08T01:24:15.852Z,20
2022-12-08T01:25:15.835Z,20
2022-12-08T01:26:15.827Z,20
2022-12-08T01:27:15.816Z,20
2022-12-08T01:28:15.806Z,20
2022-12-08T01:29:15.797Z,20
2022-12-08T01:30:15.795Z,20
2022-12-08T01:31:15.784Z,20
2022-12-08T01:32:15.762Z,20
2022-12-08T01:33:15.753Z,20
2022-12-08T01:34:15.745Z,20
2022-12-08T01:35:15.734Z,20
2022-12-08T01:36:15.723Z,20
2022-12-08T01:37:15.712Z,20
2022-12-08T01:38:15.703Z,20
2022-12-08T01:39:15.690Z,20
2022-12-08T01:40:15.688Z,20
2022-12-08T01:41:15.671Z,20
2022-12-08T01:42:15.660Z,20
2022-12-08T01:43:15.653Z,20
2022-12-08T01:44:15.642Z,20
2022-12-08T01:45:15.628Z,20
2022-12-08T01:46:15.619Z,20
2022-12-08T01:47:15.612Z,20
2022-12-08T01:48:15.604Z,20
2022-12-08T01:49:15.599Z,20
2022-12-08T01:50:15.577Z,20
2022-12-08T01:51:15.566Z,20
2022-12-08T01:52:15.559Z,20
2022-12-08T01:53:15.549Z,20
2022-12-08T01:54:15.545Z,20
2022-12-08T01:55:15.541Z,20
2022-12-08T01:56:15.523Z,20
2022-12-08T01:57:15.524Z,20
2022-12-08T01:58:15.492Z,20
2022-12-08T01:59:15.486Z,20
2022-12-08T02:00:15.475Z,20
2022-12-08T02:01:15.462Z,20
2022-12-08T02:02:15.453Z,20
2022-12-08T02:03:15.441Z,20
2022-12-08T02:04:15.435Z,20
2022-12-08T02:05:15.428Z,20
2022-12-08T02:06:15.410Z,20
2022-12-08T02:07:15.401Z,20
2022-12-08T02:08:15.388Z,20
2022-12-08T02:09:15.379Z,20
2022-12-08T02:10:15.373Z,20
2022-12-08T02:11:15.368Z,20
2022-12-08T02:12:15.355Z,20
2022-12-08T02:13:15.343Z,20
2022-12-08T02:14:15.331Z,20
2022-12-08T02:15:15.320Z,20
2022-12-08T02:16:15.307Z,20
2022-12-08T02:17:15.308Z,20
2022-12-08T02:18:15.290Z,20
2022-12-08T02:19:15.282Z,20
2022-12-08T02:20:15.273Z,20
2022-12-08T02:21:15.255Z,20
2022-12-08T02:22:15.247Z,20
2022-12-08T02:23:15.241Z,20
2022-12-08T02:24:15.223Z,20
2022-12-08T02:25:15.216Z,20
2022-12-08T02:26:15.208Z,20
2022-12-08T02:27:15.195Z,20
2022-12-08T02:28:15.206Z,20
2022-12-08T02:29:15.188Z,20
2022-12-08T02:30:15.201Z,20
2022-12-08T02:31:15.154Z,20
2022-12-08T02:32:15.152Z,20
2022-12-08T02:33:15.135Z,20
2022-12-08T02:34:15.122Z,20
2022-12-08T02:35:15.112Z,20
2022-12-08T02:36:15.105Z,20
2022-12-08T02:37:15.095Z,20
2022-12-08T02:38:15.090Z,20
2022-12-08T02:39:15.085Z,20
2022-12-08T02:40:15.073Z,20
2022-12-08T02:41:15.058Z,20
2022-12-08T02:42:15.051Z,20
2022-12-08T02:43:15.048Z,20
2022-12-08T02:44:15.049Z,20
2022-12-08T02:45:15.007Z,20
2022-12-08T02:46:15.001Z,20
2022-12-08T02:47:14.989Z,20
2022-12-08T02:48:14.977Z,20
2022-12-08T02:49:14.981Z,20
2022-12-08T02:50:14.967Z,20
2022-12-08T02:51:14.949Z,20
2022-12-08T02:52:14.948Z,20
2022-12-08T02:54:14.915Z,20
2022-12-08T02:55:14.907Z,20
2022-12-08T02:56:14.893Z,20
2022-12-08T02:57:14.886Z,20
2022-12-08T02:58:14.876Z,20
2022-12-08T02:59:14.867Z,20
2022-12-08T03:00:14.851Z,20
2022-12-08T03:01:14.846Z,20
2022-12-08T03:02:14.831Z,20
2022-12-08T03:03:14.820Z,20
2022-12-08T03:04:14.817Z,20
2022-12-08T03:05:14.801Z,20
2022-12-08T03:06:14.806Z,20
2022-12-08T03:07:14.787Z,20
2022-12-08T03:08:14.771Z,20
2022-12-08T03:09:14.765Z,20
2022-12-08T03:10:14.751Z,20
2022-12-08T03:11:14.742Z,20
2022-12-08T03:12:14.735Z,20
2022-12-08T03:13:14.731Z,20
2022-12-08T03:14:14.709Z,20
2022-12-08T03:15:14.698Z,20
2022-12-08T03:16:14.690Z,20
2022-12-08T03:17:14.690Z,20
2022-12-08T03:18:14.667Z,20
2022-12-08T03:19:14.680Z,20
2022-12-08T03:20:14.649Z,20
2022-12-08T03:21:14.638Z,20
2022-12-08T03:22:14.626Z,20
2022-12-08T03:23:14.618Z,20
2022-12-08T03:24:14.607Z,20
2022-12-08T03:25:14.607Z,20
2022-12-08T03:26:14.586Z,20
2022-12-08T03:27:14.591Z,20
2022-12-08T03:28:14.570Z,20
2022-12-08T03:29:14.558Z,20
2022-12-08T03:30:14.545Z,20
2022-12-08T03:31:14.533Z,20
2022-12-08T03:32:14.521Z,20
2022-12-08T03:33:14.515Z,20
2022-12-08T03:34:14.505Z,20
2022-12-08T03:35:14.495Z,20
2022-12-08T03:36:14.819Z,20
2022-12-08T03:37:14.471Z,20
2022-12-08T03:38:14.463Z,20
2022-12-08T03:39:14.454Z,20
2022-12-08T03:40:14.456Z,20
2022-12-08T03:41:14.428Z,20
2022-12-08T03:42:14.421Z,20
2022-12-08T03:43:14.428Z,20
2022-12-08T03:44:14.403Z,20
2022-12-08T03:45:14.387Z,20
2022-12-08T03:46:14.434Z,20
2022-12-08T03:47:14.370Z,20
2022-12-08T03:48:14.361Z,20
2022-12-08T03:49:14.349Z,20
2022-12-08T03:50:14.335Z,20
2022-12-08T03:51:14.323Z,20
2022-12-08T03:52:14.316Z,20
2022-12-08T03:53:14.307Z,20
2022-12-08T03:54:14.303Z,20
2022-12-08T03:55:14.284Z,20
2022-12-08T03:56:14.273Z,20
2022-12-08T03:57:14.266Z,20
2022-12-08T03:58:14.254Z,20
2022-12-08T03:59:14.243Z,20
2022-12-08T04:00:14.237Z,20
2022-12-08T04:01:14.222Z,24
2022-12-08T04:02:14.213Z,24
2022-12-08T04:03:14.202Z,24
2022-12-08T04:04:14.191Z,24
2022-12-08T04:05:14.189Z,24
2022-12-08T04:06:14.172Z,24
2022-12-08T04:07:14.164Z,24
2022-12-08T04:08:14.154Z,24
2022-12-08T04:09:14.139Z,24
2022-12-08T04:10:14.133Z,24
2022-12-08T04:11:14.117Z,24
2022-12-08T04:12:14.114Z,24
2022-12-08T04:13:14.099Z,24
2022-12-08T04:14:14.094Z,24
2022-12-08T04:15:14.081Z,24
2022-12-08T04:16:14.066Z,24
2022-12-08T04:17:14.056Z,24
2022-12-08T04:18:14.048Z,24
2022-12-08T04:19:14.042Z,24
2022-12-08T04:20:14.023Z,24
2022-12-08T04:21:14.016Z,24
2022-12-08T04:22:14.004Z,24
2022-12-08T04:23:13.990Z,24
2022-12-08T04:24:13.986Z,24
2022-12-08T04:25:13.973Z,24
2022-12-08T04:26:13.961Z,24
2022-12-08T04:27:13.959Z,24
2022-12-08T04:28:13.939Z,24
2022-12-08T04:29:13.938Z,24
2022-12-08T04:30:13.918Z,24
2022-12-08T04:31:13.916Z,24
2022-12-08T04:32:13.897Z,24
2022-12-08T04:33:13.890Z,24
2022-12-08T04:34:13.907Z,24
2022-12-08T04:35:13.864Z,24
2022-12-08T04:36:13.855Z,24
2022-12-08T04:37:13.852Z,24
2022-12-08T04:38:13.836Z,24
2022-12-08T04:39:13.820Z,24
2022-12-08T04:40:13.814Z,24
2022-12-08T04:41:13.809Z,24
2022-12-08T04:42:13.886Z,24
2022-12-08T04:43:13.779Z,24
2022-12-08T04:44:13.798Z,24
2022-12-08T04:45:13.759Z,24
2022-12-08T04:46:13.747Z,24
2022-12-08T04:47:13.743Z,24
2022-12-08T04:48:13.731Z,24
2022-12-08T04:49:13.731Z,24
2022-12-08T04:50:13.708Z,24
2022-12-08T04:51:13.699Z,24
2022-12-08T04:52:13.688Z,24
2022-12-08T04:53:13.673Z,24
2022-12-08T04:54:13.671Z,24
2022-12-08T04:55:13.659Z,24
2022-12-08T04:56:13.645Z,24
2022-12-08T04:57:13.630Z,24
2022-12-08T04:58:13.630Z,24
2022-12-08T04:59:13.623Z,24
2022-12-08T05:00:13.612Z,24
2022-12-08T05:01:13.596Z,24
2022-12-08T05:02:13.582Z,24
2022-12-08T05:03:13.588Z,24
2022-12-08T05:04:13.558Z,20
2022-12-08T05:05:13.552Z,20
2022-12-08T05:06:13.539Z,20
2022-12-08T05:07:13.540Z,20
2022-12-08T05:08:13.531Z,20
2022-12-08T05:09:13.509Z,20
2022-12-08T05:10:13.530Z,20
2022-12-08T05:11:13.487Z,20
2022-12-08T05:12:13.475Z,20
2022-12-08T05:13:13.464Z,24
2022-12-08T05:14:13.460Z,24
2022-12-08T05:15:13.443Z,24
2022-12-08T05:16:13.429Z,20
2022-12-08T05:17:13.423Z,20
2022-12-08T05:18:13.417Z,20
2022-12-08T05:19:13.405Z,20
2022-12-08T05:20:13.418Z,20
2022-12-08T05:21:13.377Z,20
2022-12-08T05:22:13.371Z,20
2022-12-08T05:23:13.356Z,20
2022-12-08T05:24:13.350Z,20
2022-12-08T05:25:13.338Z,20
2022-12-08T05:26:13.348Z,20
2022-12-08T05:27:13.319Z,20
2022-12-08T05:28:13.319Z,20
2022-12-08T05:29:13.310Z,20
2022-12-08T05:30:13.280Z,20
2022-12-08T05:31:13.271Z,20
2022-12-08T05:32:13.264Z,20
2022-12-08T05:33:13.278Z,20
2022-12-08T05:34:13.259Z,20
2022-12-08T05:35:13.254Z,20
2022-12-08T05:36:13.221Z,20
2022-12-08T05:37:13.217Z,20
2022-12-08T05:38:13.250Z,20
2022-12-08T05:39:13.190Z,20
2022-12-08T05:40:13.173Z,20
2022-12-08T05:41:13.168Z,20
2022-12-08T05:42:13.152Z,20
2022-12-08T05:43:13.141Z,20
2022-12-08T05:44:13.138Z,20
2022-12-08T05:45:13.130Z,20
2022-12-08T05:46:13.109Z,20
2022-12-08T05:47:13.108Z,20
2022-12-08T05:48:13.111Z,20
2022-12-08T05:49:13.115Z,20
2022-12-08T05:50:13.073Z,20
2022-12-08T05:51:13.066Z,20
2022-12-08T05:52:13.051Z,20
2022-12-08T05:53:13.036Z,20
2022-12-08T05:54:13.024Z,20
2022-12-08T05:55:13.013Z,20
2022-12-08T05:56:13.008Z,20
2022-12-08T05:57:13.027Z,20
2022-12-08T05:58:12.989Z,20
2022-12-08T05:59:12.981Z,20
2022-12-08T06:00:12.964Z,20
2022-12-08T06:01:12.950Z,20
2022-12-08T06:02:12.939Z,20
2022-12-08T06:03:12.928Z,20
2022-12-08T06:04:12.923Z,20
2022-12-08T06:05:12.927Z,20
2022-12-08T06:06:12.900Z,20
2022-12-08T06:07:12.887Z,20
2022-12-08T06:08:12.878Z,20
2022-12-08T06:09:12.868Z,20
2022-12-08T06:10:12.859Z,20
2022-12-08T06:11:12.851Z,20
2022-12-08T06:12:12.831Z,20
2022-12-08T06:13:12.825Z,20
2022-12-08T06:14:12.816Z,20
2022-12-08T06:15:12.838Z,20
2022-12-08T06:16:12.802Z,20
2022-12-08T06:17:12.799Z,20
2022-12-08T06:18:12.782Z,20
2022-12-08T06:19:12.770Z,20
2022-12-08T06:20:12.754Z,20
2022-12-08T06:21:12.742Z,20
2022-12-08T06:22:12.742Z,20
2022-12-08T06:23:12.730Z,20
2022-12-08T06:24:12.715Z,20
2022-12-08T06:25:12.701Z,20
2022-12-08T06:26:12.685Z,20
2022-12-08T06:27:12.679Z,24
2022-12-08T06:28:12.662Z,20
2022-12-08T06:29:12.656Z,20
2022-12-08T06:30:12.658Z,20
2022-12-08T06:31:12.634Z,20
2022-12-08T06:32:12.627Z,20
2022-12-08T06:33:12.615Z,20
2022-12-08T06:34:12.604Z,20
2022-12-08T06:35:12.594Z,20
2022-12-08T06:36:12.587Z,20
2022-12-08T06:37:12.576Z,20
2022-12-08T06:38:12.575Z,20
2022-12-08T06:39:12.551Z,20
2022-12-08T06:40:12.543Z,20
2022-12-08T06:41:12.547Z,20
2022-12-08T06:42:12.544Z,20
2022-12-08T06:43:12.510Z,20
2022-12-08T06:44:12.496Z,24
2022-12-08T06:45:12.486Z,20
2022-12-08T06:46:12.490Z,24
2022-12-08T06:47:12.465Z,24
2022-12-08T06:48:12.460Z,24
2022-12-08T06:49:12.450Z,24
2022-12-08T06:50:12.436Z,24
2022-12-08T06:51:12.423Z,24
2022-12-08T06:52:12.416Z,24
2022-12-08T06:53:12.411Z,20
2022-12-08T06:54:12.393Z,24
2022-12-08T06:55:12.384Z,24
2022-12-08T06:56:12.370Z,24
2022-12-08T06:57:12.390Z,28
2022-12-08T06:58:12.358Z,24
2022-12-08T06:59:12.344Z,24
2022-12-08T07:00:12.332Z,28
2022-12-08T07:01:12.321Z,28
2022-12-08T07:02:12.327Z,28
2022-12-08T07:03:12.307Z,28
2022-12-08T07:04:12.303Z,32
2022-12-08T07:05:12.307Z,32
2022-12-08T07:06:12.269Z,24
2022-12-08T07:07:12.266Z,24
2022-12-08T07:08:12.241Z,24
2022-12-08T07:09:12.277Z,28
2022-12-08T07:10:12.224Z,32
2022-12-08T07:11:12.214Z,28
2022-12-08T07:12:12.201Z,32
2022-12-08T07:13:12.197Z,36
2022-12-08T07:14:12.182Z,36
2022-12-08T07:15:12.172Z,36
2022-12-08T07:16:12.159Z,44
2022-12-08T07:17:12.164Z,44
2022-12-08T07:18:12.160Z,44
2022-12-08T07:19:12.123Z,36
2022-12-08T07:20:12.121Z,36
2022-12-08T07:21:12.107Z,36
2022-12-08T07:22:12.104Z,40
2022-12-08T07:23:12.082Z,48
2022-12-08T07:24:12.069Z,56
2022-12-08T07:25:12.069Z,60
2022-12-08T07:26:12.062Z,64
2022-12-08T07:27:12.043Z,60
2022-12-08T07:28:12.036Z,64
2022-12-08T07:29:12.021Z,72
2022-12-08T07:30:12.008Z,84
2022-12-08T07:31:11.992Z,84
2022-12-08T07:32:11.998Z,80
2022-12-08T07:33:11.997Z,92
2022-12-08T07:34:11.965Z,104
2022-12-08T07:35:11.953Z,84
2022-12-08T07:36:11.948Z,96
2022-12-08T07:37:11.962Z,92
2022-12-08T07:38:11.920Z,96
2022-12-08T07:39:12.001Z,104
2022-12-08T07:40:11.900Z,112
2022-12-08T07:41:11.895Z,124
2022-12-08T07:42:11.877Z,136
2022-12-08T07:43:11.868Z,156
2022-12-08T07:44:11.859Z,148
2022-12-08T07:45:11.850Z,144
2022-12-08T07:46:11.846Z,140
2022-12-08T07:47:11.833Z,124
2022-12-08T07:48:11.825Z,112
2022-12-08T07:49:11.805Z,124
2022-12-08T07:50:11.801Z,108
2022-12-08T07:51:11.785Z,96
2022-12-08T07:52:11.868Z,96
2022-12-08T07:53:11.774Z,92
2022-12-08T07:54:11.758Z,96
2022-12-08T07:55:11.748Z,100
2022-12-08T07:56:11.735Z,100
2022-12-08T07:57:11.723Z,104
2022-12-08T07:58:11.735Z,108
2022-12-08T07:59:11.737Z,116
2022-12-08T08:00:11.686Z,116
2022-12-08T08:01:11.683Z,128
2022-12-08T08:02:11.668Z,128
2022-12-08T08:03:11.666Z,132
2022-12-08T08:04:11.643Z,132
2022-12-08T08:05:11.636Z,164
2022-12-08T08:06:11.672Z,168
2022-12-08T08:07:11.613Z,172
2022-12-08T08:08:11.609Z,196
2022-12-08T08:09:11.600Z,204
2022-12-08T08:10:11.583Z,220
2022-12-08T08:11:11.575Z,220
2022-12-08T08:12:11.564Z,232
2022-12-08T08:13:11.549Z,232
2022-12-08T08:14:11.539Z,236
2022-12-08T08:15:11.537Z,216
2022-12-08T08:16:11.527Z,220
2022-12-08T08:17:11.511Z,244
2022-12-08T08:18:11.495Z,240
2022-12-08T08:19:11.490Z,232
2022-12-08T08:20:11.485Z,236
2022-12-08T08:21:11.466Z,236
2022-12-08T08:22:11.470Z,260
2022-12-08T08:23:11.453Z,260
2022-12-08T08:24:11.443Z,256
2022-12-08T08:25:11.451Z,288
2022-12-08T08:26:11.424Z,316
2022-12-08T08:27:11.404Z,340
2022-12-08T08:28:11.415Z,328
2022-12-08T08:29:11.385Z,300
2022-12-08T08:30:11.368Z,336
2022-12-08T08:31:11.355Z,364
2022-12-08T08:32:11.370Z,340
2022-12-08T08:33:11.345Z,348
2022-12-08T08:34:11.337Z,344
2022-12-08T08:35:11.350Z,300
2022-12-08T08:36:11.302Z,304
2022-12-08T08:37:11.294Z,328
2022-12-08T08:38:11.286Z,324
2022-12-08T08:39:11.278Z,348
2022-12-08T08:40:11.298Z,344
2022-12-08T08:41:11.253Z,312
2022-12-08T08:42:11.391Z,320
2022-12-08T08:43:11.272Z,336
2022-12-08T08:44:11.280Z,320
2022-12-08T08:45:11.233Z,332
2022-12-08T08:46:11.201Z,352
2022-12-08T08:47:11.188Z,372
2022-12-08T08:48:11.175Z,376
2022-12-08T08:49:11.158Z,440
2022-12-08T08:50:11.162Z,456
2022-12-08T08:51:11.145Z,480
2022-12-08T08:52:11.131Z,448
2022-12-08T08:53:11.122Z,532
2022-12-08T08:54:11.108Z,520
2022-12-08T08:55:11.099Z,516
2022-12-08T08:56:11.090Z,532
2022-12-08T08:57:11.076Z,572
2022-12-08T08:58:11.064Z,556
2022-12-08T08:59:11.062Z,492
2022-12-08T09:00:11.045Z,452
2022-12-08T09:01:11.044Z,476
2022-12-08T09:02:11.020Z,456
2022-12-08T09:03:11.014Z,456
2022-12-08T09:04:11.001Z,456
2022-12-08T09:05:10.992Z,476
2022-12-08T09:06:10.985Z,544
2022-12-08T09:07:10.966Z,600
2022-12-08T09:08:10.961Z,616
2022-12-08T09:09:10.945Z,680
2022-12-08T09:10:10.936Z,696
2022-12-08T09:11:10.925Z,680
2022-12-08T09:12:10.915Z,824
2022-12-08T09:13:10.910Z,732
2022-12-08T09:14:10.891Z,724
2022-12-08T09:15:10.885Z,656
2022-12-08T09:16:10.882Z,652
2022-12-08T09:17:10.860Z,652
2022-12-08T09:18:10.858Z,696
2022-12-08T09:19:10.847Z,716
2022-12-08T09:20:10.832Z,732
2022-12-08T09:21:10.821Z,792
2022-12-08T09:22:10.814Z,784
2022-12-08T09:23:10.840Z,824
2022-12-08T09:24:10.794Z,896
2022-12-08T09:25:10.781Z,892
2022-12-08T09:26:10.772Z,916
2022-12-08T09:27:10.766Z,912
2022-12-08T09:28:10.750Z,936
2022-12-08T09:29:10.747Z,892
2022-12-08T09:30:10.731Z,856
2022-12-08T09:31:10.767Z,916
2022-12-08T09:32:10.707Z,892
2022-12-08T09:33:10.698Z,872
2022-12-08T09:34:10.683Z,1004
2022-12-08T09:35:10.679Z,908
2022-12-08T09:36:10.665Z,880
2022-12-08T09:37:10.655Z,860
2022-12-08T09:38:10.643Z,884
2022-12-08T09:39:10.633Z,900
2022-12-08T09:40:10.626Z,892
2022-12-08T09:41:10.615Z,968
2022-12-08T09:42:10.614Z,976
2022-12-08T09:43:10.603Z,868
2022-12-08T09:44:10.580Z,820
2022-12-08T09:45:10.571Z,844
2022-12-08T09:46:10.570Z,936
2022-12-08T09:47:10.555Z,1004
2022-12-08T09:48:10.538Z,1020
2022-12-08T09:49:10.531Z,1144
2022-12-08T09:50:10.514Z,1216
2022-12-08T09:51:10.506Z,1176
2022-12-08T09:52:10.493Z,1204
2022-12-08T09:53:10.482Z,1252
2022-12-08T09:54:10.481Z,1204
2022-12-08T09:55:10.461Z,1116
2022-12-08T09:56:10.451Z,980
2022-12-08T09:57:10.449Z,848
2022-12-08T09:58:10.434Z,828
2022-12-08T09:59:10.419Z,960
2022-12-08T10:00:10.422Z,1116
2022-12-08T10:01:10.431Z,1088
2022-12-08T10:02:10.390Z,1024
2022-12-08T10:03:10.387Z,1044
2022-12-08T10:04:10.379Z,1148
2022-12-08T10:05:10.355Z,1020
2022-12-08T10:06:10.347Z,964
2022-12-08T10:07:10.346Z,1076
2022-12-08T10:08:10.325Z,1220
2022-12-08T10:09:10.314Z,1272
2022-12-08T10:10:10.307Z,1204
2022-12-08T10:11:10.297Z,1016
2022-12-08T10:12:10.292Z,904
2022-12-08T10:13:10.296Z,1020
2022-12-08T10:14:10.486Z,1144
2022-12-08T10:15:10.258Z,1048
2022-12-08T10:16:10.266Z,1000
2022-12-08T10:17:10.232Z,944
2022-12-08T10:18:10.226Z,864
2022-12-08T10:19:10.253Z,960
2022-12-08T10:20:10.212Z,1132
2022-12-08T10:21:10.194Z,1176
2022-12-08T10:22:10.185Z,1300
2022-12-08T10:23:10.176Z,1832
2022-12-08T10:24:10.159Z,1900
2022-12-08T10:25:10.147Z,1632
2022-12-08T10:26:10.161Z,1932
2022-12-08T10:27:10.127Z,2152
2022-12-08T10:28:10.121Z,2228
2022-12-08T10:29:10.109Z,1776
2022-12-08T10:30:10.098Z,1588
2022-12-08T10:31:10.083Z,1828
2022-12-08T10:32:10.084Z,2092
2022-12-08T10:33:10.066Z,2108
2022-12-08T10:34:10.063Z,2296
2022-12-08T10:35:10.051Z,2548
2022-12-08T10:36:10.034Z,2880
2022-12-08T10:37:10.019Z,2912
2022-12-08T10:38:10.034Z,2856
2022-12-08T10:39:10.001Z,2612
2022-12-08T10:40:09.990Z,2932
2022-12-08T10:41:09.977Z,3016
2022-12-08T10:42:09.972Z,2976
2022-12-08T10:43:09.968Z,2712
2022-12-08T10:44:09.957Z,2096
2022-12-08T10:45:09.939Z,1544
2022-12-08T10:46:09.937Z,1332
2022-12-08T10:47:09.925Z,1476
2022-12-08T10:48:09.907Z,1316
2022-12-08T10:49:09.902Z,1144
2022-12-08T10:50:09.882Z,1084
2022-12-08T10:51:09.867Z,1492
2022-12-08T10:52:09.863Z,1768
2022-12-08T10:53:09.854Z,1824
2022-12-08T10:54:09.847Z,1732
2022-12-08T10:55:09.830Z,1796
2022-12-08T10:56:09.834Z,1508
2022-12-08T10:57:09.816Z,1612
2022-12-08T10:58:09.800Z,1464
2022-12-08T10:59:09.810Z,1660
2022-12-08T11:00:09.785Z,1736
2022-12-08T11:01:09.770Z,1816
2022-12-08T11:02:09.753Z,1820
2022-12-08T11:03:09.747Z,1824
2022-12-08T11:04:09.731Z,1672
2022-12-08T11:05:09.727Z,1528
2022-12-08T11:06:09.712Z,1568
2022-12-08T11:07:09.700Z,1404
2022-12-08T11:08:09.688Z,1424
2022-12-08T11:09:09.677Z,1448
2022-12-08T11:10:09.671Z,1508
2022-12-08T11:11:09.660Z,1500
2022-12-08T11:12:09.690Z,1376
2022-12-08T11:13:09.641Z,1288
2022-12-08T11:14:09.627Z,1240
2022-12-08T11:15:09.626Z,1244
2022-12-08T11:16:09.621Z,1180
2022-12-08T11:17:09.627Z,1088
2022-12-08T11:18:09.592Z,1020
2022-12-08T11:19:09.578Z,1484
2022-12-08T11:20:09.579Z,1536
2022-12-08T11:21:09.553Z,1360
2022-12-08T11:22:09.549Z,1512
2022-12-08T11:23:09.531Z,2056
2022-12-08T11:24:09.523Z,2332
2022-12-08T11:25:09.515Z,2088
2022-12-08T11:26:10.440Z,1776
2022-12-08T11:27:09.502Z,1700
2022-12-08T11:28:09.496Z,1708
2022-12-08T11:29:09.471Z,1444
2022-12-08T11:30:09.468Z,1320
2022-12-08T11:31:10.406Z,1192
2022-12-08T11:32:09.433Z,1372
2022-12-08T11:33:09.435Z,1568
2022-12-08T11:34:09.441Z,1504
2022-12-08T11:35:09.405Z,1400
2022-12-08T11:36:09.388Z,1380
2022-12-08T11:37:09.380Z,1368
2022-12-08T11:38:09.383Z,1564
2022-12-08T11:39:09.374Z,1604
2022-12-08T11:40:09.351Z,1648
2022-12-08T11:41:09.365Z,1704
2022-12-08T11:42:09.341Z,1788
2022-12-08T11:43:09.327Z,1860
2022-12-08T11:44:09.334Z,2092
2022-12-08T11:45:09.304Z,2052
2022-12-08T11:46:09.290Z,1988
2022-12-08T11:47:09.275Z,1816
2022-12-08T11:48:09.274Z,1680
2022-12-08T11:49:09.252Z,1580
2022-12-08T11:50:09.266Z,1400
2022-12-08T11:51:09.232Z,1464
2022-12-08T11:52:09.214Z,1524
2022-12-08T11:53:09.203Z,1524
2022-12-08T11:54:09.211Z,1444
2022-12-08T11:55:09.192Z,1492
2022-12-08T11:56:09.191Z,1500
2022-12-08T11:57:09.186Z,1312
2022-12-08T11:58:09.194Z,1232
2022-12-08T11:59:09.140Z,1140
2022-12-08T12:00:09.135Z,1240
2022-12-08T12:01:09.123Z,1396
2022-12-08T12:02:09.105Z,1584
2022-12-08T12:03:09.144Z,2000
2022-12-08T12:04:09.104Z,2284
2022-12-08T12:05:09.091Z,2164
2022-12-08T12:06:09.078Z,2200
2022-12-08T12:07:09.052Z,2112
2022-12-08T12:08:09.046Z,2168
2022-12-08T12:09:09.044Z,2420
2022-12-08T12:10:09.022Z,2660
2022-12-08T12:11:09.020Z,2708
2022-12-08T12:12:09.019Z,2548
2022-12-08T12:13:09.011Z,2288
2022-12-08T12:14:09.000Z,1928
2022-12-08T12:15:08.969Z,1776
2022-12-08T12:16:08.957Z,1924
2022-12-08T12:17:08.945Z,1888
2022-12-08T12:18:08.956Z,1984
2022-12-08T12:19:08.927Z,1928
2022-12-08T12:20:08.923Z,2112
2022-12-08T12:21:08.915Z,2188
2022-12-08T12:22:08.929Z,1956
2022-12-08T12:23:08.876Z,1924
2022-12-08T12:24:08.865Z,1888
2022-12-08T12:25:08.859Z,1764
2022-12-08T12:26:08.873Z,1852
2022-12-08T12:27:08.844Z,1524
2022-12-08T12:28:08.822Z,1480
2022-12-08T12:29:08.815Z,1568
2022-12-08T12:30:08.807Z,1368
2022-12-08T12:31:08.808Z,1176
2022-12-08T12:32:08.795Z,1092
2022-12-08T12:33:08.790Z,1132
2022-12-08T12:34:08.765Z,1184
2022-12-08T12:35:08.760Z,1472
2022-12-08T12:36:08.734Z,2280
2022-12-08T12:37:08.747Z,2456
2022-12-08T12:38:08.715Z,2168
2022-12-08T12:39:08.704Z,2100
2022-12-08T12:40:08.696Z,1904
2022-12-08T12:41:08.684Z,1476
2022-12-08T12:42:08.671Z,1204
2022-12-08T12:43:08.728Z,1120
2022-12-08T12:44:09.652Z,1124
2022-12-08T12:45:08.637Z,1240
2022-12-08T12:46:08.658Z,1204
2022-12-08T12:47:08.620Z,1372
2022-12-08T12:48:08.623Z,1528
2022-12-08T12:49:08.603Z,1568
2022-12-08T12:50:08.587Z,1424
2022-12-08T12:51:08.593Z,1356
2022-12-08T12:52:08.573Z,1300
2022-12-08T12:53:08.563Z,1248
2022-12-08T12:54:08.544Z,1312
2022-12-08T12:55:08.536Z,1200
2022-12-08T12:56:08.536Z,1116
2022-12-08T12:57:08.516Z,1124
2022-12-08T12:58:08.507Z,1200
2022-12-08T12:59:08.507Z,1504
2022-12-08T13:00:08.476Z,1660
2022-12-08T13:01:08.466Z,1732
2022-12-08T13:02:08.453Z,1604
2022-12-08T13:03:08.469Z,1316
2022-12-08T13:04:08.441Z,1212
2022-12-08T13:05:08.449Z,1152
2022-12-08T13:06:08.409Z,1096
2022-12-08T13:07:08.403Z,1136
2022-12-08T13:08:08.404Z,1316
2022-12-08T13:09:08.396Z,1236
2022-12-08T13:10:08.378Z,1108
2022-12-08T13:11:08.359Z,1016
2022-12-08T13:12:08.367Z,968
2022-12-08T13:13:08.340Z,896
2022-12-08T13:14:08.325Z,780
2022-12-08T13:15:08.314Z,780
2022-12-08T13:16:08.325Z,744
2022-12-08T13:17:08.342Z,736
2022-12-08T13:18:08.285Z,724
2022-12-08T13:19:08.278Z,924
2022-12-08T13:20:08.265Z,1104
2022-12-08T13:21:08.344Z,1180
2022-12-08T13:22:08.242Z,1024
2022-12-08T13:23:08.274Z,888
2022-12-08T13:24:08.222Z,1036
2022-12-08T13:25:08.214Z,1220
2022-12-08T13:26:08.201Z,1116
2022-12-08T13:27:08.198Z,1132
2022-12-08T13:28:08.173Z,1080
2022-12-08T13:29:08.160Z,952
2022-12-08T13:30:08.156Z,912
2022-12-08T13:31:08.153Z,932
2022-12-08T13:32:08.135Z,800
2022-12-08T13:33:08.127Z,772
2022-12-08T13:34:08.120Z,728
2022-12-08T13:35:08.098Z,700
2022-12-08T13:36:08.092Z,688
2022-12-08T13:37:08.087Z,644
2022-12-08T13:38:08.101Z,680
2022-12-08T13:39:08.060Z,720
2022-12-08T13:40:08.045Z,788
2022-12-08T13:41:08.056Z,760
2022-12-08T13:42:08.029Z,764
2022-12-08T13:43:08.031Z,732
2022-12-08T13:44:08.005Z,688
2022-12-08T13:47:07.970Z,592
2022-12-08T13:48:07.963Z,684
2022-12-08T13:50:07.996Z,940
2022-12-08T13:52:07.965Z,984
2022-12-08T13:53:07.924Z,884
2022-12-08T13:55:07.937Z,856
2022-12-08T13:56:07.890Z,844
2022-12-08T13:57:07.862Z,792
2022-12-08T13:58:07.901Z,720
2022-12-08T13:59:07.878Z,660
2022-12-08T14:00:07.829Z,628